New Harbour, Canada
Current Conditions -  °F | °C
As of 10:00 AM on Monday 24 Nov 2014 (Local Time) from CYYT Reporting Station
Few Clouds Few Clouds  
Wind Chill: -9°   Ceiling: Unl
Heat Index: -2°   Visibility: 15mi
Dew Point: -7°   Wind: 17mph
Humidity: 69%   Direction: 300°WNW
Pressure: 30.29"   Gusts: NA
Location:  47.58°N, 53.55°W
Report Text: CYYT 241300Z 30015KT 15SM FEW020 FEW200 M02/M07 A3029 RMK CU1CI1 SLP264
Loading
Personal Weather Stations






























Interactive Weather Map New forecast layout! Learn more

10-Day Weather Forecast

Advertisements
Track Severe Weather on mobile